createdAt,value
2019-03-23T00:02:10.891Z,20.03
2019-03-23T00:04:40.643Z,23.47
2019-03-23T00:07:10.442Z,35.13
2019-03-23T00:09:40.183Z,31.87
2019-03-23T00:12:10.189Z,24.10
2019-03-23T00:14:39.954Z,25.37
2019-03-23T00:17:09.766Z,25.57
2019-03-23T00:19:39.655Z,30.93
2019-03-23T00:22:09.419Z,27.90
2019-03-23T00:24:39.194Z,28.23
2019-03-23T00:27:08.941Z,25.70
2019-03-23T00:29:38.731Z,26.60
2019-03-23T00:32:08.567Z,34.33
2019-03-23T00:34:38.435Z,28.87
2019-03-23T00:37:08.257Z,30.53
2019-03-23T00:39:38.087Z,31.33
2019-03-23T00:42:07.853Z,29.67
2019-03-23T00:44:37.666Z,28.93
2019-03-23T00:47:07.428Z,30.03
2019-03-23T00:49:37.197Z,31.30
2019-03-23T00:52:06.957Z,34.57
2019-03-23T00:54:36.696Z,35.23
2019-03-23T00:57:06.505Z,36.93
2019-03-23T00:59:36.282Z,36.63
2019-03-23T01:02:06.062Z,34.93
2019-03-23T01:04:35.845Z,30.83
2019-03-23T01:07:05.583Z,31.60
2019-03-23T01:09:35.395Z,31.03
2019-03-23T01:12:05.125Z,29.53
2019-03-23T01:14:34.894Z,28.97
2019-03-23T01:17:04.759Z,31.63
2019-03-23T01:19:34.557Z,28.30
2019-03-23T01:22:04.335Z,27.83
2019-03-23T01:24:34.136Z,28.87
2019-03-23T01:27:03.903Z,26.93
2019-03-23T01:29:34.812Z,35.03
2019-03-23T01:32:04.587Z,34.40
2019-03-23T01:34:34.376Z,20.03
2019-03-23T01:37:04.141Z,20.00
2019-03-23T01:39:33.916Z,17.93
2019-03-23T01:42:03.691Z,19.50
2019-03-23T01:44:33.427Z,53.43
2019-03-23T01:47:03.578Z,28.60
2019-03-23T01:49:33.311Z,30.27
2019-03-23T01:52:03.131Z,24.10
2019-03-23T01:54:32.898Z,24.33
2019-03-23T01:57:02.678Z,33.10
2019-03-23T01:59:32.470Z,34.57
2019-03-23T02:02:02.202Z,24.83
2019-03-23T02:04:31.989Z,32.37
2019-03-23T02:07:01.735Z,24.03
2019-03-23T02:09:31.482Z,23.30
2019-03-23T02:12:01.271Z,22.20
2019-03-23T02:14:31.041Z,20.50
2019-03-23T02:17:00.841Z,25.83
2019-03-23T02:19:30.608Z,29.20
2019-03-23T02:22:00.381Z,22.03
2019-03-23T02:24:30.155Z,21.63
2019-03-23T02:26:59.908Z,20.80
2019-03-23T02:29:29.698Z,25.37
2019-03-23T02:31:59.443Z,25.50
2019-03-23T02:34:29.208Z,26.50
2019-03-23T02:36:58.988Z,32.30
2019-03-23T02:39:28.781Z,32.10
2019-03-23T02:41:58.546Z,31.20
2019-03-23T02:44:28.329Z,30.43
2019-03-23T02:46:58.103Z,33.37
2019-03-23T02:49:27.836Z,32.97
2019-03-23T02:51:57.623Z,31.37
2019-03-23T02:54:27.368Z,31.43
2019-03-23T02:56:57.196Z,30.93
2019-03-23T02:59:26.975Z,32.10
2019-03-23T03:01:56.778Z,30.40
2019-03-23T03:04:26.566Z,28.47
2019-03-23T03:06:56.328Z,30.10
2019-03-23T03:09:26.107Z,29.33
2019-03-23T03:11:56.018Z,28.43
2019-03-23T03:14:25.783Z,26.63
2019-03-23T03:16:55.568Z,23.80
2019-03-23T03:19:25.343Z,25.53
2019-03-23T03:21:55.099Z,25.63
2019-03-23T03:24:24.869Z,26.27
2019-03-23T03:26:54.601Z,24.07
2019-03-23T03:29:24.385Z,25.03
2019-03-23T03:31:54.133Z,27.10
2019-03-23T03:34:23.995Z,27.30
2019-03-23T03:36:53.751Z,26.37
2019-03-23T03:39:23.562Z,24.70
2019-03-23T03:41:53.316Z,26.13
2019-03-23T03:47:48.617Z,28.77
2019-03-23T03:50:18.357Z,27.70
2019-03-23T03:52:48.125Z,26.43
2019-03-23T03:55:17.903Z,27.87
2019-03-23T03:57:47.641Z,27.23
2019-03-23T04:00:17.435Z,27.20
2019-03-23T04:02:47.172Z,24.70
2019-03-23T04:05:16.990Z,25.57
2019-03-23T04:07:47.242Z,25.43
2019-03-23T04:10:17.048Z,27.57
2019-03-23T04:12:46.829Z,27.70
2019-03-23T04:15:16.706Z,25.93
2019-03-23T04:17:46.478Z,26.23
2019-03-23T04:20:17.623Z,26.30
2019-03-23T04:22:47.404Z,26.87
2019-03-23T04:25:17.156Z,25.60
2019-03-23T04:27:46.962Z,26.07
2019-03-23T04:30:16.748Z,26.30
2019-03-23T04:32:46.729Z,26.23
2019-03-23T04:35:16.504Z,25.87
2019-03-23T04:37:46.234Z,26.33
2019-03-23T04:40:16.124Z,26.70
2019-03-23T04:42:45.964Z,27.60
2019-03-23T04:45:15.733Z,27.27
2019-03-23T04:47:45.506Z,28.13
2019-03-23T04:50:15.235Z,33.97
2019-03-23T04:52:45.077Z,28.23
2019-03-23T04:55:15.035Z,57.97
2019-03-23T04:57:44.814Z,28.47
2019-03-23T05:00:20.487Z,28.93
2019-03-23T05:02:50.376Z,27.90
2019-03-23T05:05:20.158Z,28.80
2019-03-23T05:07:49.923Z,24.17
2019-03-23T05:10:19.798Z,17.50
2019-03-23T05:12:49.642Z,19.77
2019-03-23T05:15:19.441Z,25.13
2019-03-23T05:17:49.182Z,29.40
2019-03-23T05:20:29.989Z,30.47
2019-03-23T05:22:59.738Z,31.07
2019-03-23T05:25:30.038Z,27.60
2019-03-23T05:27:59.876Z,28.57
2019-03-23T05:30:29.679Z,29.70
2019-03-23T05:32:59.419Z,30.20
2019-03-23T05:35:29.308Z,31.67
2019-03-23T05:37:59.039Z,31.60
2019-03-23T05:40:28.820Z,29.67
2019-03-23T05:42:58.689Z,29.63
2019-03-23T05:48:39.979Z,29.00
2019-03-23T05:51:09.759Z,42.80
2019-03-23T05:53:39.577Z,26.60
2019-03-23T05:56:09.357Z,25.43
2019-03-23T05:58:39.142Z,26.90
2019-03-23T06:01:09.011Z,28.33
2019-03-23T06:03:38.771Z,27.87
2019-03-23T06:06:08.686Z,25.73
2019-03-23T06:08:38.435Z,24.53
2019-03-23T06:11:08.295Z,24.77
2019-03-23T06:13:38.034Z,26.30
2019-03-23T06:16:07.830Z,26.70
2019-03-23T06:18:37.567Z,25.33
2019-03-23T06:21:07.332Z,25.43
2019-03-23T06:23:37.091Z,26.37
2019-03-23T06:26:06.888Z,25.37
2019-03-23T06:28:36.666Z,28.97
2019-03-23T06:31:06.535Z,27.07
2019-03-23T06:33:36.314Z,27.47
2019-03-23T06:36:06.060Z,29.57
2019-03-23T06:38:35.857Z,32.63
2019-03-23T06:41:05.602Z,32.60
2019-03-23T06:43:35.364Z,35.40
2019-03-23T06:46:05.158Z,32.43
2019-03-23T06:48:34.945Z,34.37
2019-03-23T06:51:04.722Z,31.00
2019-03-23T06:53:34.814Z,29.27
2019-03-23T06:56:04.596Z,34.10
2019-03-23T06:58:34.378Z,37.47
2019-03-23T07:01:04.147Z,36.27
2019-03-23T07:03:33.894Z,32.60
2019-03-23T07:06:03.698Z,32.23
2019-03-23T07:08:33.449Z,33.63
2019-03-23T07:11:03.238Z,36.27
2019-03-23T07:13:32.976Z,35.40
2019-03-23T07:16:03.110Z,35.07
2019-03-23T07:18:32.842Z,39.63
2019-03-23T07:21:02.629Z,34.40
2019-03-23T07:23:32.422Z,33.73
2019-03-23T07:26:02.235Z,36.97
2019-03-23T07:28:32.014Z,37.73
2019-03-23T07:31:01.795Z,36.77
2019-03-23T07:33:31.574Z,36.37
2019-03-23T07:36:01.319Z,37.40
2019-03-23T07:38:31.138Z,35.67
2019-03-23T07:41:00.875Z,38.30
2019-03-23T07:43:30.672Z,36.83
2019-03-23T07:46:00.458Z,36.13
2019-03-23T07:48:30.353Z,38.10
2019-03-23T07:51:00.124Z,36.20
2019-03-23T07:53:29.891Z,38.13
2019-03-23T07:55:59.678Z,36.87
2019-03-23T07:58:29.442Z,35.53
2019-03-23T08:00:59.249Z,36.67
2019-03-23T08:03:28.983Z,36.60
2019-03-23T08:05:58.790Z,37.13
2019-03-23T08:08:28.540Z,35.87
2019-03-23T08:10:58.311Z,40.23
2019-03-23T08:13:28.199Z,38.20
2019-03-23T08:15:58.072Z,37.67
2019-03-23T08:18:27.839Z,36.63
2019-03-23T08:20:57.658Z,36.83
2019-03-23T08:23:27.440Z,38.20
2019-03-23T08:25:57.222Z,36.13
2019-03-23T08:28:27.613Z,35.80
2019-03-23T08:31:00.135Z,38.07
2019-03-23T08:33:29.932Z,35.77
2019-03-23T08:35:59.732Z,36.07
2019-03-23T08:38:37.088Z,35.93
2019-03-23T08:41:08.566Z,38.93
2019-03-23T08:43:38.362Z,37.53
2019-03-23T08:46:08.201Z,38.13
2019-03-23T08:48:40.581Z,40.77
2019-03-23T08:51:11.279Z,35.23
2019-03-23T08:53:41.046Z,38.37
2019-03-23T08:56:10.878Z,37.60
2019-03-23T08:58:39.574Z,43.17
2019-03-23T09:01:09.865Z,39.97
2019-03-23T09:03:39.642Z,41.77
2019-03-23T09:06:09.392Z,36.97
2019-03-23T09:08:39.203Z,38.23
2019-03-23T09:11:08.955Z,36.73
2019-03-23T09:13:40.727Z,36.07
2019-03-23T09:16:10.257Z,36.23
2019-03-23T09:18:40.051Z,34.87
2019-03-23T09:21:09.846Z,35.10
2019-03-23T09:23:39.632Z,35.30
2019-03-23T09:26:09.421Z,36.63
2019-03-23T09:28:39.185Z,37.63
2019-03-23T09:31:08.997Z,37.63
2019-03-23T09:33:38.739Z,38.17
2019-03-23T09:36:08.554Z,35.30
2019-03-23T09:38:38.303Z,33.80
2019-03-23T09:41:08.107Z,34.23
2019-03-23T09:43:37.860Z,37.70
2019-03-23T09:46:07.660Z,34.87
2019-03-23T09:48:37.459Z,35.57
2019-03-23T09:51:07.270Z,34.70
2019-03-23T09:53:37.048Z,35.30
2019-03-23T09:56:06.860Z,38.90
2019-03-23T09:58:36.637Z,34.50
2019-03-23T10:01:06.390Z,34.63
2019-03-23T10:03:36.196Z,36.17
2019-03-23T10:06:06.115Z,36.53
2019-03-23T10:08:35.945Z,35.90
2019-03-23T10:11:05.687Z,34.90
2019-03-23T10:13:35.477Z,34.97
2019-03-23T10:16:06.275Z,36.87
2019-03-23T10:18:36.072Z,35.17
2019-03-23T10:21:05.863Z,34.20
2019-03-23T10:23:35.673Z,35.53
2019-03-23T10:26:05.456Z,35.60
2019-03-23T10:28:35.259Z,37.27
2019-03-23T10:31:05.039Z,36.33
2019-03-23T10:33:34.789Z,37.60
2019-03-23T10:36:04.617Z,37.60
2019-03-23T10:38:34.371Z,37.33
2019-03-23T10:41:04.212Z,35.67
2019-03-23T10:43:34.000Z,39.40
2019-03-23T10:46:03.817Z,36.50
2019-03-23T10:48:33.605Z,34.87
2019-03-23T10:51:03.382Z,33.03
2019-03-23T10:53:33.162Z,34.63
2019-03-23T10:56:02.916Z,34.20
2019-03-23T10:58:32.938Z,35.57
2019-03-23T11:01:02.679Z,39.07
2019-03-23T11:03:32.491Z,37.47
2019-03-23T11:06:03.813Z,35.73
2019-03-23T11:08:33.617Z,33.23
2019-03-23T11:11:03.376Z,32.73
2019-03-23T11:13:33.150Z,32.80
2019-03-23T11:16:02.925Z,31.00
2019-03-23T11:18:32.734Z,29.27
2019-03-23T11:21:02.520Z,29.70
2019-03-23T11:23:32.303Z,31.17
2019-03-23T11:26:02.162Z,29.90
2019-03-23T11:28:31.918Z,31.60
2019-03-23T11:31:01.709Z,32.40
2019-03-23T11:33:31.446Z,30.90
2019-03-23T11:36:01.229Z,32.83
2019-03-23T11:38:31.019Z,31.07
2019-03-23T11:41:00.751Z,30.87
2019-03-23T11:43:30.584Z,30.67
2019-03-23T11:46:00.355Z,29.63
2019-03-23T11:48:30.134Z,29.43
2019-03-23T11:50:59.906Z,29.13
2019-03-23T11:53:29.656Z,30.43
2019-03-23T11:55:59.453Z,30.87
2019-03-23T11:58:29.205Z,31.97
2019-03-23T12:00:58.978Z,27.20
2019-03-23T12:03:28.751Z,27.57
2019-03-23T12:05:58.530Z,28.23
2019-03-23T12:08:28.311Z,28.33
2019-03-23T12:11:02.875Z,28.40
2019-03-23T12:13:29.564Z,27.20
2019-03-23T12:15:59.306Z,26.60
2019-03-23T12:18:29.106Z,30.00
2019-03-23T12:20:58.848Z,29.10
2019-03-23T12:23:28.620Z,25.70
2019-03-23T12:25:58.401Z,24.53
2019-03-23T12:28:28.180Z,24.30
2019-03-23T12:30:57.958Z,23.97
2019-03-23T12:33:27.697Z,25.20
2019-03-23T12:35:57.487Z,26.20
2019-03-23T12:38:27.344Z,23.97
2019-03-23T12:40:57.155Z,25.70
2019-03-23T12:43:26.892Z,24.83
2019-03-23T12:45:56.695Z,26.00
2019-03-23T12:48:26.550Z,24.53
2019-03-23T12:50:56.327Z,26.47
2019-03-23T12:53:26.100Z,26.47
2019-03-23T12:55:55.854Z,22.87
2019-03-23T12:58:25.672Z,23.97
2019-03-23T13:00:55.427Z,26.03
2019-03-23T13:03:25.229Z,26.00
2019-03-23T13:05:54.973Z,25.23
2019-03-23T13:08:24.852Z,23.57
2019-03-23T13:10:54.633Z,24.57
2019-03-23T13:13:24.446Z,23.90
2019-03-23T13:15:54.224Z,22.57
2019-03-23T13:18:27.283Z,17.63
2019-03-23T13:20:55.602Z,16.67
2019-03-23T13:23:25.410Z,18.00
2019-03-23T13:25:55.185Z,18.40
2019-03-23T13:28:24.971Z,19.53
2019-03-23T13:30:54.737Z,18.53
2019-03-23T13:33:24.491Z,18.27
2019-03-23T13:35:54.293Z,19.43
2019-03-23T13:38:24.057Z,17.13
2019-03-23T13:40:53.844Z,21.07
2019-03-23T13:43:23.661Z,19.10
2019-03-23T13:45:53.409Z,18.87
2019-03-23T13:48:23.202Z,20.00
2019-03-23T13:50:52.943Z,19.10
2019-03-23T13:53:22.735Z,19.97
2019-03-23T13:55:52.505Z,18.60
2019-03-23T13:58:22.327Z,20.00
2019-03-23T14:00:52.109Z,21.50
2019-03-23T14:03:21.881Z,18.67
2019-03-23T14:05:51.660Z,17.33
2019-03-23T14:08:21.412Z,19.90
2019-03-23T14:10:51.225Z,18.67
2019-03-23T14:13:20.966Z,18.50
2019-03-23T14:15:50.793Z,17.97
2019-03-23T14:18:20.544Z,18.70
2019-03-23T14:20:50.308Z,16.60
2019-03-23T14:23:20.094Z,17.97
2019-03-23T14:25:49.909Z,16.00
2019-03-23T14:28:19.679Z,16.90
2019-03-23T14:30:49.472Z,14.87
2019-03-23T14:33:19.248Z,19.00
2019-03-23T14:35:49.000Z,16.10
2019-03-23T14:38:18.817Z,27.53
2019-03-23T14:40:48.576Z,28.27
2019-03-23T14:43:18.362Z,17.17
2019-03-23T14:45:48.136Z,26.57
2019-03-23T14:48:17.940Z,14.30
2019-03-23T14:50:47.724Z,17.63
2019-03-23T14:53:17.495Z,15.13
2019-03-23T14:55:47.341Z,16.77
2019-03-23T14:58:17.094Z,19.33
2019-03-23T15:00:46.895Z,16.50
2019-03-23T15:03:16.661Z,19.73
2019-03-23T15:05:46.470Z,12.53
2019-03-23T15:08:16.241Z,11.33
2019-03-23T15:10:46.159Z,11.80
2019-03-23T15:13:15.926Z,11.53
2019-03-23T15:15:45.711Z,11.40
2019-03-23T15:18:15.474Z,11.20
2019-03-23T15:20:45.217Z,14.20
2019-03-23T15:23:15.035Z,13.00
2019-03-23T15:25:44.784Z,18.73
2019-03-23T15:28:14.561Z,13.77
2019-03-23T15:30:44.355Z,11.80
2019-03-23T15:33:14.270Z,10.67
2019-03-23T15:35:44.051Z,17.43
2019-03-23T15:38:13.834Z,19.30
2019-03-23T15:40:43.610Z,24.07
2019-03-23T15:43:13.347Z,19.50
2019-03-23T15:45:43.155Z,21.13
2019-03-23T15:48:12.890Z,21.73
2019-03-23T15:50:42.666Z,23.53
2019-03-23T15:53:12.454Z,21.83
2019-03-23T15:55:42.349Z,21.03
2019-03-23T15:58:12.137Z,13.77
2019-03-23T16:00:41.916Z,12.40
2019-03-23T16:03:11.694Z,15.43
2019-03-23T16:05:41.440Z,10.93
2019-03-23T16:08:11.255Z,10.93
2019-03-23T16:10:41.113Z,12.10
2019-03-23T16:13:10.935Z,10.90
2019-03-23T16:15:40.700Z,9.93
2019-03-23T16:18:10.485Z,14.40
2019-03-23T16:20:40.257Z,10.80
2019-03-23T16:23:10.088Z,5.90
2019-03-23T16:25:42.396Z,8.67
2019-03-23T16:28:12.190Z,8.57
2019-03-23T16:30:41.949Z,9.00
2019-03-23T16:33:13.314Z,12.53
2019-03-23T16:35:43.083Z,14.90
2019-03-23T16:38:14.586Z,15.37
2019-03-23T16:40:47.331Z,18.60
2019-03-23T16:43:17.242Z,22.80
2019-03-23T16:45:47.010Z,23.13
2019-03-23T16:48:18.376Z,30.17
2019-03-23T16:50:48.166Z,27.20
2019-03-23T16:53:17.981Z,38.13
2019-03-23T16:55:47.762Z,30.60
2019-03-23T16:58:17.540Z,36.90
2019-03-23T17:00:47.317Z,34.33
2019-03-23T17:03:17.119Z,34.37
2019-03-23T17:05:46.902Z,34.73
2019-03-23T17:08:17.164Z,34.93
2019-03-23T17:10:46.934Z,37.77
2019-03-23T17:13:16.747Z,38.10
2019-03-23T17:15:46.516Z,36.40
2019-03-23T17:18:16.318Z,29.90
2019-03-23T17:20:46.102Z,40.47
2019-03-23T17:23:15.895Z,38.37
2019-03-23T17:25:45.672Z,31.50
2019-03-23T17:28:15.403Z,33.70
2019-03-23T17:30:45.217Z,32.87
2019-03-23T17:33:14.984Z,29.23
2019-03-23T17:35:44.769Z,36.87
2019-03-23T17:38:15.230Z,33.90
2019-03-23T17:40:45.155Z,21.40
2019-03-23T17:43:15.353Z,39.27
2019-03-23T17:45:45.140Z,37.73
2019-03-23T17:48:14.933Z,21.00
2019-03-23T17:50:45.014Z,41.97
2019-03-23T17:53:15.788Z,28.67
2019-03-23T17:55:47.136Z,36.13
2019-03-23T17:58:16.928Z,36.57
2019-03-23T18:00:46.699Z,43.63
2019-03-23T18:03:16.487Z,38.57
2019-03-23T18:05:47.190Z,38.03
2019-03-23T18:08:17.032Z,40.33
2019-03-23T18:10:46.790Z,43.30
2019-03-23T18:13:17.301Z,51.20
2019-03-23T18:15:49.742Z,23.60
2019-03-23T18:18:19.932Z,28.03
2019-03-23T18:20:49.683Z,33.77
2019-03-23T18:23:19.479Z,31.60
2019-03-23T18:25:49.260Z,58.47
2019-03-23T18:28:19.066Z,40.30
2019-03-23T18:30:48.848Z,27.73
2019-03-23T18:33:18.646Z,31.53
2019-03-23T18:35:48.434Z,31.43
2019-03-23T18:38:18.208Z,49.63
2019-03-23T18:40:48.018Z,34.17
2019-03-23T18:43:26.958Z,40.43
2019-03-23T18:45:49.279Z,22.53
2019-03-23T18:48:19.050Z,44.07
2019-03-23T18:50:48.836Z,24.93
2019-03-23T18:53:18.620Z,29.67
2019-03-23T18:55:48.406Z,32.83
2019-03-23T18:58:19.209Z,36.63
2019-03-23T19:00:48.956Z,24.70
2019-03-23T19:03:18.775Z,24.23
2019-03-23T19:05:48.520Z,36.33
2019-03-23T19:08:18.310Z,20.20
2019-03-23T19:10:48.056Z,22.60
2019-03-23T19:13:17.842Z,24.50
2019-03-23T19:15:47.631Z,21.97
2019-03-23T20:24:51.718Z,25.10
2019-03-23T21:12:02.202Z,14.30
2019-03-23T21:14:32.016Z,15.30
2019-03-23T21:17:01.879Z,18.03
2019-03-23T21:19:31.656Z,17.60
2019-03-23T21:22:01.495Z,15.30
2019-03-23T21:24:31.308Z,12.83
2019-03-23T21:27:01.191Z,15.17
2019-03-23T21:29:30.962Z,14.23
2019-03-23T21:35:18.960Z,11.17
2019-03-23T21:37:48.734Z,15.30
2019-03-23T21:40:18.547Z,13.53
2019-03-23T21:42:48.335Z,12.10
2019-03-23T21:45:18.367Z,12.57
2019-03-23T21:47:48.148Z,13.37
2019-03-23T21:50:17.973Z,12.70
2019-03-23T21:52:47.760Z,17.57
2019-03-23T21:55:17.509Z,10.53
2019-03-23T21:57:48.765Z,13.70
2019-03-23T22:00:30.754Z,11.63
2019-03-23T22:03:00.758Z,11.57
2019-03-23T22:05:30.495Z,12.13
2019-03-23T22:08:00.272Z,15.47
2019-03-23T22:10:30.102Z,11.77
2019-03-23T22:12:59.921Z,8.07
2019-03-23T22:15:31.407Z,12.40
2019-03-23T22:18:01.233Z,11.13
2019-03-23T22:20:32.439Z,11.37
2019-03-23T22:23:02.246Z,10.63
2019-03-23T22:25:32.005Z,9.67
2019-03-23T22:28:01.828Z,9.20
2019-03-23T22:30:31.607Z,10.37
2019-03-23T22:33:01.469Z,11.27
2019-03-23T22:35:31.263Z,10.47
2019-03-23T22:38:00.998Z,10.93
2019-03-23T22:40:30.810Z,9.53
2019-03-23T22:43:00.563Z,11.33
2019-03-23T22:45:31.381Z,11.90
2019-03-23T22:48:01.159Z,16.07
2019-03-23T22:50:30.969Z,10.20
2019-03-23T22:53:17.837Z,13.50
2019-03-23T22:55:48.771Z,11.50
2019-03-23T22:58:18.501Z,9.97
2019-03-23T23:00:48.296Z,11.33
2019-03-23T23:03:18.089Z,12.47
2019-03-23T23:05:47.871Z,13.83
2019-03-23T23:08:17.659Z,13.57
2019-03-23T23:10:47.432Z,15.53
2019-03-23T23:13:17.195Z,14.77
2019-03-23T23:15:46.942Z,14.07
2019-03-23T23:18:16.764Z,14.40
2019-03-23T23:20:46.542Z,13.97
2019-03-23T23:23:16.424Z,14.27
2019-03-23T23:25:46.221Z,12.07
2019-03-23T23:28:15.996Z,13.23
2019-03-23T23:30:45.840Z,15.63
2019-03-23T23:33:15.588Z,16.40
2019-03-23T23:35:45.398Z,23.10
2019-03-23T23:38:15.216Z,14.93
2019-03-23T23:40:45.011Z,16.23
2019-03-23T23:43:14.793Z,15.40
2019-03-23T23:45:44.665Z,12.33
2019-03-23T23:48:14.437Z,13.37
2019-03-23T23:50:44.206Z,12.50
2019-03-23T23:53:13.985Z,14.20
2019-03-23T23:55:43.727Z,16.90
2019-03-23T23:58:13.535Z,20.57
